Southfield Township, Michigan
Current Conditions -  °F | °C
As of 2:35 PM on Thursday 30 Oct 2014 (Local Time) from KVLL Reporting Station
Overcast Overcast  
Wind Chill: 51°   Ceiling: 4000
Heat Index: 51°   Visibility: 10mi
Dew Point: 31°   Wind: 6mph
Humidity: 47%   Direction: 250°WSW
Pressure: 30.1"   Gusts: NA
Location:  42.5206°N, 83.2664°W
Report Text: KVLL 301835Z AUTO 25005KT 10SM BKN040 OVC048 10/M01 A3010 RMK AO2 T01041006
Loading
Personal Weather Stations






























Interactive Weather Map
Tropical Storm Tracking
New forecast layout! Learn more

10-Day Weather Forecast

Advertisements
Track Severe Weather on mobile